createdAt,value
2022-08-20T00:01:02.024Z,0.00
2022-08-20T00:01:57.411Z,0.00
2022-08-20T00:02:56.322Z,0.00
2022-08-20T00:03:56.299Z,0.00
2022-08-20T00:04:56.272Z,0.00
2022-08-20T00:05:56.795Z,0.00
2022-08-20T00:06:56.243Z,0.00
2022-08-20T00:07:56.437Z,0.00
2022-08-20T00:08:56.234Z,0.00
2022-08-20T00:09:56.267Z,0.00
2022-08-20T00:10:56.186Z,0.00
2022-08-20T00:11:56.167Z,0.00
2022-08-20T00:12:56.139Z,0.00
2022-08-20T00:13:56.143Z,0.00
2022-08-20T00:14:56.094Z,0.00
2022-08-20T00:15:56.086Z,0.00
2022-08-20T00:16:56.104Z,0.00
2022-08-20T00:17:56.186Z,0.00
2022-08-20T00:18:56.032Z,0.00
2022-08-20T00:19:56.032Z,0.00
2022-08-20T00:20:55.993Z,0.00
2022-08-20T00:21:58.090Z,0.00
2022-08-20T00:22:55.973Z,0.00
2022-08-20T00:23:55.927Z,0.00
2022-08-20T00:24:55.965Z,0.00
2022-08-20T00:25:56.048Z,0.00
2022-08-20T00:26:55.873Z,0.00
2022-08-20T00:27:56.055Z,0.00
2022-08-20T00:28:55.838Z,0.00
2022-08-20T00:29:55.828Z,0.00
2022-08-20T00:30:55.815Z,0.00
2022-08-20T00:31:55.803Z,0.00
2022-08-20T00:32:55.747Z,0.00
2022-08-20T00:33:55.765Z,0.00
2022-08-20T00:34:55.798Z,0.00
2022-08-20T00:35:55.716Z,0.00
2022-08-20T00:36:55.705Z,0.00
2022-08-20T00:38:00.376Z,0.00
2022-08-20T00:38:56.671Z,0.00
2022-08-20T00:39:55.699Z,0.00
2022-08-20T00:40:55.694Z,0.00
2022-08-20T00:41:55.592Z,0.00
2022-08-20T00:42:55.678Z,0.00
2022-08-20T00:43:55.603Z,0.00
2022-08-20T00:44:57.188Z,0.00
2022-08-20T00:45:55.536Z,0.00
2022-08-20T00:46:55.521Z,0.00
2022-08-20T00:47:55.619Z,0.00
2022-08-20T00:48:55.484Z,0.00
2022-08-20T00:49:55.471Z,0.00
2022-08-20T00:50:55.490Z,0.00
2022-08-20T00:51:55.421Z,0.00
2022-08-20T00:52:55.460Z,0.00
2022-08-20T00:53:55.371Z,0.00
2022-08-20T00:54:55.363Z,0.00
2022-08-20T00:55:55.375Z,0.00
2022-08-20T00:56:55.313Z,0.00
2022-08-20T00:58:00.845Z,0.00
2022-08-20T00:58:56.294Z,0.00
2022-08-20T00:59:55.300Z,0.00
2022-08-20T01:00:55.254Z,0.00
2022-08-20T01:01:56.576Z,0.00
2022-08-20T01:02:55.237Z,0.00
2022-08-20T01:03:55.973Z,0.00
2022-08-20T01:04:55.182Z,0.00
2022-08-20T01:05:55.156Z,1.00
2022-08-20T01:06:55.203Z,0.00
2022-08-20T01:07:55.346Z,0.00
2022-08-20T01:08:55.151Z,0.00
2022-08-20T01:09:58.919Z,0.00
2022-08-20T01:10:55.162Z,0.00
2022-08-20T01:11:55.055Z,0.00
2022-08-20T01:12:58.997Z,0.00
2022-08-20T01:13:55.706Z,0.00
2022-08-20T01:14:54.994Z,0.00
2022-08-20T01:15:54.903Z,0.00
2022-08-20T01:16:54.951Z,0.00
2022-08-20T01:17:55.159Z,0.00
2022-08-20T01:18:54.911Z,0.00
2022-08-20T01:19:54.898Z,0.00
2022-08-20T01:20:54.890Z,0.00
2022-08-20T01:21:54.858Z,0.00
2022-08-20T01:22:54.835Z,0.00
2022-08-20T01:23:54.857Z,0.00
2022-08-20T01:24:54.811Z,0.00
2022-08-20T01:25:54.807Z,0.00
2022-08-20T01:26:54.798Z,0.00
2022-08-20T01:27:55.560Z,0.00
2022-08-20T01:28:54.753Z,0.00
2022-08-20T01:29:54.718Z,0.00
2022-08-20T01:30:54.680Z,0.00
2022-08-20T01:31:54.669Z,0.00
2022-08-20T01:32:54.668Z,1.00
2022-08-20T01:33:54.659Z,0.00
2022-08-20T01:34:54.620Z,0.00
2022-08-20T01:35:54.660Z,0.00
2022-08-20T01:36:54.606Z,0.00
2022-08-20T01:37:54.707Z,0.00
2022-08-20T01:38:54.947Z,0.00
2022-08-20T01:39:54.535Z,0.00
2022-08-20T01:40:54.511Z,0.00
2022-08-20T01:41:54.508Z,0.00
2022-08-20T01:42:59.514Z,0.00
2022-08-20T01:43:55.499Z,0.00
2022-08-20T01:44:54.472Z,0.00
2022-08-20T01:45:54.422Z,0.00
2022-08-20T01:46:54.403Z,0.00
2022-08-20T01:47:54.703Z,0.00
2022-08-20T01:48:54.391Z,0.00
2022-08-20T01:49:54.318Z,0.00
2022-08-20T01:50:54.314Z,0.00
2022-08-20T01:51:54.306Z,0.00
2022-08-20T01:52:54.282Z,0.00
2022-08-20T01:53:54.357Z,0.00
2022-08-20T01:54:54.269Z,0.00
2022-08-20T01:55:54.240Z,0.00
2022-08-20T01:56:54.212Z,0.00
2022-08-20T01:57:54.224Z,0.00
2022-08-20T01:58:56.028Z,0.00
2022-08-20T01:59:54.166Z,0.00
2022-08-20T02:00:54.145Z,0.00
2022-08-20T02:01:54.178Z,0.00
2022-08-20T02:02:54.206Z,0.00
2022-08-20T02:03:54.137Z,0.00
2022-08-20T02:04:54.075Z,0.00
2022-08-20T02:05:54.064Z,0.00
2022-08-20T02:06:56.325Z,0.00
2022-08-20T02:07:54.052Z,0.00
2022-08-20T02:08:54.030Z,0.00
2022-08-20T02:09:54.066Z,0.00
2022-08-20T02:10:53.974Z,0.00
2022-08-20T02:11:54.001Z,0.00
2022-08-20T02:12:53.941Z,0.00
2022-08-20T02:13:54.654Z,0.00
2022-08-20T02:14:53.945Z,0.00
2022-08-20T02:15:53.887Z,0.00
2022-08-20T02:16:55.073Z,0.00
2022-08-20T02:17:53.941Z,0.00
2022-08-20T02:18:53.849Z,0.00
2022-08-20T02:19:53.821Z,0.00
2022-08-20T02:20:53.917Z,0.00
2022-08-20T02:21:53.790Z,0.00
2022-08-20T02:22:53.751Z,0.00
2022-08-20T02:23:53.735Z,0.00
2022-08-20T02:24:53.709Z,0.00
2022-08-20T02:25:53.712Z,0.00
2022-08-20T02:26:53.686Z,0.00
2022-08-20T02:27:53.722Z,0.00
2022-08-20T02:28:53.611Z,0.00
2022-08-20T02:29:53.602Z,0.00
2022-08-20T02:30:53.683Z,0.00
2022-08-20T02:32:32.379Z,0.00
2022-08-20T02:32:56.250Z,0.00
2022-08-20T02:34:21.790Z,0.00
2022-08-20T02:34:54.425Z,1.00
2022-08-20T02:35:53.557Z,0.00
2022-08-20T02:36:53.526Z,0.00
2022-08-20T02:37:53.437Z,0.00
2022-08-20T02:38:53.431Z,0.00
2022-08-20T02:39:53.440Z,0.00
2022-08-20T02:40:53.429Z,0.00
2022-08-20T02:41:53.362Z,0.00
2022-08-20T02:42:53.383Z,0.00
2022-08-20T02:43:53.311Z,0.00
2022-08-20T02:44:53.328Z,0.00
2022-08-20T02:45:53.497Z,0.00
2022-08-20T02:46:53.307Z,0.00
2022-08-20T02:47:53.253Z,0.00
2022-08-20T02:48:53.262Z,0.00
2022-08-20T02:49:53.210Z,0.00
2022-08-20T02:50:53.216Z,0.00
2022-08-20T02:51:53.220Z,0.00
2022-08-20T02:52:53.082Z,0.00
2022-08-20T02:53:53.153Z,0.00
2022-08-20T02:54:53.162Z,0.00
2022-08-20T02:55:53.121Z,0.00
2022-08-20T02:56:53.011Z,0.00
2022-08-20T02:57:52.990Z,0.00
2022-08-20T02:58:52.996Z,0.00
2022-08-20T02:59:52.957Z,0.00
2022-08-20T03:00:52.925Z,0.00
2022-08-20T03:01:59.987Z,0.00
2022-08-20T03:02:53.999Z,1.00
2022-08-20T03:03:52.872Z,0.00
2022-08-20T03:04:52.841Z,0.00
2022-08-20T03:05:52.925Z,0.00
2022-08-20T03:06:53.153Z,0.00
2022-08-20T03:07:52.936Z,0.00
2022-08-20T03:08:52.799Z,0.00
2022-08-20T03:09:52.772Z,0.00
2022-08-20T03:10:52.733Z,0.00
2022-08-20T03:11:52.777Z,0.00
2022-08-20T03:12:52.754Z,0.00
2022-08-20T03:13:52.715Z,0.00
2022-08-20T03:14:52.710Z,0.00
2022-08-20T03:15:56.605Z,0.00
2022-08-20T03:16:53.718Z,0.00
2022-08-20T03:17:52.666Z,0.00
2022-08-20T03:18:52.612Z,0.00
2022-08-20T03:19:52.595Z,0.00
2022-08-20T03:20:52.557Z,0.00
2022-08-20T03:21:52.528Z,0.00
2022-08-20T03:22:52.535Z,0.00
2022-08-20T03:23:52.532Z,0.00
2022-08-20T03:24:52.506Z,0.00
2022-08-20T03:25:52.483Z,0.00
2022-08-20T03:26:52.449Z,0.00
2022-08-20T03:27:54.434Z,0.00
2022-08-20T03:28:52.449Z,0.00
2022-08-20T03:29:52.406Z,0.00
2022-08-20T03:30:52.405Z,0.00
2022-08-20T03:31:52.364Z,0.00
2022-08-20T03:32:52.394Z,0.00
2022-08-20T03:33:53.363Z,0.00
2022-08-20T03:34:52.322Z,0.00
2022-08-20T03:35:52.330Z,0.00
2022-08-20T03:36:52.292Z,0.00
2022-08-20T03:37:52.269Z,0.00
2022-08-20T03:38:52.257Z,0.00
2022-08-20T03:39:52.334Z,0.00
2022-08-20T03:40:52.229Z,0.00
2022-08-20T03:41:52.213Z,0.00
2022-08-20T03:42:52.192Z,0.00
2022-08-20T03:43:52.203Z,0.00
2022-08-20T03:44:58.879Z,0.00
2022-08-20T03:45:53.104Z,0.00
2022-08-20T03:46:52.114Z,0.00
2022-08-20T03:47:52.111Z,1.00
2022-08-20T03:48:59.602Z,0.00
2022-08-20T03:49:53.068Z,0.00
2022-08-20T03:50:52.042Z,1.00
2022-08-20T03:51:57.144Z,1.00
2022-08-20T03:52:52.988Z,1.00
2022-08-20T03:53:52.018Z,1.00
2022-08-20T03:54:51.960Z,1.00
2022-08-20T03:55:53.773Z,1.00
2022-08-20T03:56:51.913Z,1.00
2022-08-20T03:57:51.962Z,1.00
2022-08-20T03:58:51.892Z,0.00
2022-08-20T03:59:58.043Z,0.00
2022-08-20T04:00:52.966Z,0.00
2022-08-20T04:01:51.862Z,1.00
2022-08-20T04:02:51.791Z,1.00
2022-08-20T04:03:55.091Z,1.00
2022-08-20T04:04:51.777Z,1.00
2022-08-20T04:05:51.761Z,1.00
2022-08-20T04:06:51.775Z,1.00
2022-08-20T04:07:51.815Z,1.00
2022-08-20T04:08:51.864Z,2.00
2022-08-20T04:09:51.684Z,2.00
2022-08-20T04:10:51.680Z,2.00
2022-08-20T04:11:51.680Z,3.00
2022-08-20T04:12:52.831Z,3.00
2022-08-20T04:13:51.610Z,3.00
2022-08-20T04:14:51.621Z,4.00
2022-08-20T04:15:51.568Z,5.00
2022-08-20T04:16:51.584Z,6.00
2022-08-20T04:17:51.589Z,5.00
2022-08-20T04:18:56.119Z,6.00
2022-08-20T04:19:52.531Z,7.00
2022-08-20T04:20:51.484Z,8.00
2022-08-20T04:21:51.500Z,8.00
2022-08-20T04:22:58.583Z,11.00
2022-08-20T04:23:52.422Z,11.00
2022-08-20T04:24:51.406Z,13.00
2022-08-20T04:25:51.374Z,14.00
2022-08-20T04:26:51.366Z,14.00
2022-08-20T04:27:51.399Z,18.00
2022-08-20T04:28:51.326Z,20.00
2022-08-20T04:29:51.322Z,21.00
2022-08-20T04:30:52.037Z,26.00
2022-08-20T04:31:51.248Z,25.00
2022-08-20T04:32:51.276Z,28.00
2022-08-20T04:33:51.219Z,30.00
2022-08-20T04:34:51.194Z,31.00
2022-08-20T04:35:51.223Z,31.00
2022-08-20T04:36:51.168Z,35.00
2022-08-20T04:37:51.205Z,36.00
2022-08-20T04:38:51.240Z,37.00
2022-08-20T04:39:51.145Z,39.00
2022-08-20T04:40:51.128Z,39.00
2022-08-20T04:41:51.090Z,40.00
2022-08-20T04:42:51.829Z,41.00
2022-08-20T04:43:51.076Z,39.00
2022-08-20T04:44:51.046Z,44.00
2022-08-20T04:45:51.056Z,48.00
2022-08-20T04:46:51.001Z,51.00
2022-08-20T04:47:50.963Z,56.00
2022-08-20T04:48:51.005Z,60.00
2022-08-20T04:49:50.924Z,66.00
2022-08-20T04:50:50.921Z,69.00
2022-08-20T04:51:50.871Z,73.00
2022-08-20T04:52:50.858Z,76.00
2022-08-20T04:53:53.223Z,83.00
2022-08-20T04:54:50.846Z,89.00
2022-08-20T04:55:50.840Z,95.00
2022-08-20T04:56:50.800Z,96.00
2022-08-20T04:57:50.795Z,98.00
2022-08-20T04:58:50.771Z,102.00
2022-08-20T04:59:50.778Z,105.00
2022-08-20T05:00:50.735Z,111.00
2022-08-20T05:01:50.742Z,121.00
2022-08-20T05:02:50.686Z,126.00
2022-08-20T05:03:50.646Z,133.00
2022-08-20T05:04:50.682Z,139.00
2022-08-20T05:05:50.625Z,147.00
2022-08-20T05:06:50.634Z,154.00
2022-08-20T05:07:50.605Z,163.00
2022-08-20T05:08:50.582Z,171.00
2022-08-20T05:09:50.544Z,178.00
2022-08-20T05:10:50.549Z,182.00
2022-08-20T05:11:51.526Z,185.00
2022-08-20T05:12:53.498Z,190.00
2022-08-20T05:13:51.467Z,197.00
2022-08-20T05:14:50.451Z,207.00
2022-08-20T05:15:50.498Z,215.00
2022-08-20T05:16:50.452Z,221.00
2022-08-20T05:17:50.419Z,227.00
2022-08-20T05:18:52.523Z,232.00
2022-08-20T05:19:50.359Z,237.00
2022-08-20T05:20:50.366Z,253.00
2022-08-20T05:21:50.396Z,270.00
2022-08-20T05:22:50.291Z,279.00
2022-08-20T05:23:50.294Z,281.00
2022-08-20T05:24:50.274Z,289.00
2022-08-20T05:25:50.254Z,301.00
2022-08-20T05:26:50.355Z,310.00
2022-08-20T05:27:50.232Z,308.00
2022-08-20T05:28:57.386Z,303.00
2022-08-20T05:29:51.181Z,301.00
2022-08-20T05:30:50.161Z,302.00
2022-08-20T05:31:50.160Z,312.00
2022-08-20T05:32:50.114Z,322.00
2022-08-20T05:33:50.100Z,320.00
2022-08-20T05:34:50.087Z,312.00
2022-08-20T05:35:50.062Z,295.00
2022-08-20T05:36:50.064Z,277.00
2022-08-20T05:37:50.101Z,272.00
2022-08-20T05:38:49.986Z,277.00
2022-08-20T05:39:50.022Z,286.00
2022-08-20T05:40:50.010Z,304.00
2022-08-20T05:41:49.956Z,328.00
2022-08-20T05:42:49.995Z,360.00
2022-08-20T05:43:51.413Z,382.00
2022-08-20T05:44:50.008Z,379.00
2022-08-20T05:45:53.439Z,345.00
2022-08-20T05:46:50.844Z,297.00
2022-08-20T05:47:56.437Z,266.00
2022-08-20T05:48:50.817Z,249.00
2022-08-20T05:49:49.818Z,237.00
2022-08-20T05:50:49.897Z,231.00
2022-08-20T05:51:49.789Z,227.00
2022-08-20T05:52:49.902Z,226.00
2022-08-20T05:53:49.779Z,226.00
2022-08-20T05:54:49.833Z,232.00
2022-08-20T05:55:49.713Z,234.00
2022-08-20T05:56:49.800Z,236.00
2022-08-20T05:57:49.684Z,246.00
2022-08-20T05:58:49.709Z,250.00
2022-08-20T05:59:49.608Z,258.00
2022-08-20T06:00:49.799Z,261.00
2022-08-20T06:01:49.603Z,269.00
2022-08-20T06:02:49.666Z,280.00
2022-08-20T06:03:49.583Z,289.00
2022-08-20T06:04:56.230Z,299.00
2022-08-20T06:05:50.529Z,304.00
2022-08-20T06:06:49.591Z,312.00
2022-08-20T06:07:49.562Z,333.00
2022-08-20T06:08:49.595Z,359.00
2022-08-20T06:09:49.459Z,385.00
2022-08-20T06:10:49.517Z,405.00
2022-08-20T06:11:49.388Z,422.00
2022-08-20T06:12:49.498Z,443.00
2022-08-20T06:13:49.354Z,477.00
2022-08-20T06:14:49.464Z,491.00
2022-08-20T06:15:49.330Z,486.00
2022-08-20T06:16:57.629Z,475.00
2022-08-20T06:17:58.153Z,474.00
2022-08-20T06:18:50.392Z,473.00
2022-08-20T06:19:49.816Z,456.00
2022-08-20T06:20:49.378Z,440.00
2022-08-20T06:21:49.233Z,431.00
2022-08-20T06:22:49.301Z,421.00
2022-08-20T06:23:57.466Z,437.00
2022-08-20T06:24:50.335Z,484.00
2022-08-20T06:25:49.148Z,523.00
2022-08-20T06:26:49.207Z,566.00
2022-08-20T06:27:49.221Z,594.00
2022-08-20T06:28:49.183Z,627.00
2022-08-20T06:29:50.100Z,646.00
2022-08-20T06:30:49.213Z,668.00
2022-08-20T06:31:49.019Z,695.00
2022-08-20T06:32:49.126Z,787.00
2022-08-20T06:33:48.983Z,1010.00
2022-08-20T06:34:50.807Z,1227.00
2022-08-20T06:35:48.992Z,1323.00
2022-08-20T06:36:49.046Z,1696.00
2022-08-20T06:37:48.917Z,1673.00
2022-08-20T06:38:49.044Z,1722.00
2022-08-20T06:39:48.947Z,1891.00
2022-08-20T06:40:49.023Z,2066.00
2022-08-20T06:41:48.849Z,2030.00
2022-08-20T06:42:49.112Z,1396.00
2022-08-20T06:43:48.819Z,1361.00
2022-08-20T06:44:48.929Z,1404.00
2022-08-20T06:45:48.778Z,2299.00
2022-08-20T06:46:48.878Z,3967.00
2022-08-20T06:47:48.725Z,4674.00
2022-08-20T06:48:48.793Z,4407.00
2022-08-20T06:49:48.685Z,3202.00
2022-08-20T06:50:48.786Z,2040.00
2022-08-20T06:51:51.924Z,1721.00
2022-08-20T06:52:52.812Z,1833.00
2022-08-20T06:53:49.619Z,1787.00
2022-08-20T06:54:48.743Z,1623.00
2022-08-20T06:55:48.756Z,1650.00
2022-08-20T06:56:48.691Z,1626.00
2022-08-20T06:57:48.552Z,1584.00
2022-08-20T06:58:48.607Z,1554.00
2022-08-20T06:59:49.031Z,1545.00
2022-08-20T07:00:49.628Z,1553.00
2022-08-20T07:01:48.455Z,1563.00
2022-08-20T07:02:48.581Z,1570.00
2022-08-20T07:03:55.838Z,1571.00
2022-08-20T07:04:49.524Z,1539.00
2022-08-20T07:05:48.414Z,1538.00
2022-08-20T07:06:48.469Z,1637.00
2022-08-20T07:07:48.396Z,1635.00
2022-08-20T07:08:48.436Z,1746.00
2022-08-20T07:09:48.315Z,1790.00
2022-08-20T07:10:48.443Z,1873.00
2022-08-20T07:11:48.296Z,1606.00
2022-08-20T07:12:48.384Z,1758.00
2022-08-20T07:13:48.223Z,1426.00
2022-08-20T07:14:48.305Z,1449.00
2022-08-20T07:15:48.214Z,1294.00
2022-08-20T07:16:48.288Z,1284.00
2022-08-20T07:17:48.166Z,1198.00
2022-08-20T07:18:48.248Z,1240.00
2022-08-20T07:19:48.113Z,1300.00
2022-08-20T07:20:48.206Z,1294.00
2022-08-20T07:21:48.075Z,1244.00
2022-08-20T07:22:48.146Z,1226.00
2022-08-20T07:23:48.086Z,1234.00
2022-08-20T07:24:49.231Z,1267.00
2022-08-20T07:25:48.002Z,1388.00
2022-08-20T07:26:48.085Z,1514.00
2022-08-20T07:27:47.980Z,1606.00
2022-08-20T07:28:48.149Z,1386.00
2022-08-20T07:29:47.941Z,1135.00
2022-08-20T07:30:57.104Z,1196.00
2022-08-20T07:31:48.897Z,1342.00
2022-08-20T07:32:48.000Z,1675.00
2022-08-20T07:33:50.234Z,2100.00
2022-08-20T07:34:47.979Z,2069.00
2022-08-20T07:35:47.806Z,1801.00
2022-08-20T07:36:48.177Z,1698.00
2022-08-20T07:37:47.784Z,1705.00
2022-08-20T07:38:47.838Z,1691.00
2022-08-20T07:39:47.782Z,1682.00
2022-08-20T07:40:47.831Z,1654.00
2022-08-20T07:41:56.552Z,1619.00
2022-08-20T07:42:49.355Z,1530.00
2022-08-20T07:43:47.654Z,1441.00
2022-08-20T07:44:47.860Z,1409.00
2022-08-20T07:45:52.132Z,1309.00
2022-08-20T07:46:47.770Z,1270.00
2022-08-20T07:47:47.579Z,1230.00
2022-08-20T07:48:47.647Z,1203.00
2022-08-20T07:49:47.548Z,1181.00
2022-08-20T07:50:47.641Z,1149.00
2022-08-20T07:51:47.501Z,1082.00
2022-08-20T07:52:47.617Z,1015.00
2022-08-20T07:53:47.482Z,966.00
2022-08-20T07:54:47.572Z,930.00
2022-08-20T07:55:57.144Z,909.00
2022-08-20T07:56:48.542Z,901.00
2022-08-20T07:57:47.401Z,910.00
2022-08-20T07:58:47.490Z,922.00
2022-08-20T07:59:47.384Z,980.00
2022-08-20T08:00:47.654Z,1050.00
2022-08-20T08:01:47.340Z,1090.00
2022-08-20T08:02:47.493Z,1158.00
2022-08-20T08:03:50.481Z,1190.00
2022-08-20T08:04:47.365Z,1183.00
2022-08-20T08:05:47.319Z,1170.00
2022-08-20T08:06:47.351Z,1185.00
2022-08-20T08:07:47.263Z,1231.00
2022-08-20T08:08:47.314Z,1273.00
2022-08-20T08:09:47.174Z,1252.00
2022-08-20T08:10:47.282Z,1241.00
2022-08-20T08:11:47.786Z,1257.00
2022-08-20T08:12:47.244Z,1272.00
2022-08-20T08:13:47.118Z,1244.00
2022-08-20T08:14:47.177Z,1175.00
2022-08-20T08:15:47.071Z,1126.00
2022-08-20T08:16:47.191Z,1071.00
2022-08-20T08:17:47.037Z,1055.00
2022-08-20T08:18:47.146Z,1055.00
2022-08-20T08:19:47.013Z,1048.00
2022-08-20T08:20:47.185Z,1008.00
2022-08-20T08:21:47.010Z,980.00
2022-08-20T08:22:47.073Z,944.00
2022-08-20T08:23:46.957Z,917.00
2022-08-20T08:24:57.282Z,900.00
2022-08-20T08:25:47.907Z,881.00
2022-08-20T08:26:46.985Z,877.00
2022-08-20T08:27:46.899Z,878.00
2022-08-20T08:28:46.914Z,866.00
2022-08-20T08:29:46.791Z,856.00
2022-08-20T08:30:46.883Z,852.00
2022-08-20T08:31:46.873Z,851.00
2022-08-20T08:32:46.900Z,853.00
2022-08-20T08:33:46.724Z,884.00
2022-08-20T08:34:46.788Z,900.00
2022-08-20T08:35:46.717Z,920.00
2022-08-20T08:36:46.860Z,925.00
2022-08-20T08:37:46.644Z,951.00
2022-08-20T08:38:46.786Z,1014.00
2022-08-20T08:39:46.624Z,1109.00
2022-08-20T08:40:46.695Z,1240.00
2022-08-20T08:41:46.653Z,1414.00
2022-08-20T08:42:46.666Z,1548.00
2022-08-20T08:43:46.561Z,1475.00
2022-08-20T08:44:46.624Z,1397.00
2022-08-20T08:45:46.541Z,1330.00
2022-08-20T08:46:46.586Z,1304.00
2022-08-20T08:47:46.491Z,1265.00
2022-08-20T08:48:46.614Z,1242.00
2022-08-20T08:49:46.444Z,1188.00
2022-08-20T08:50:53.794Z,1141.00
2022-08-20T08:51:47.370Z,1164.00
2022-08-20T08:52:46.466Z,1219.00
2022-08-20T08:53:46.383Z,1267.00
2022-08-20T08:54:46.421Z,1272.00
2022-08-20T08:55:46.320Z,1363.00
2022-08-20T08:56:50.427Z,1437.00
2022-08-20T08:57:46.281Z,1479.00
2022-08-20T08:58:46.344Z,1529.00
2022-08-20T08:59:52.502Z,1590.00
2022-08-20T09:00:52.812Z,1687.00
2022-08-20T09:01:53.861Z,1662.00
2022-08-20T09:02:47.368Z,1491.00
2022-08-20T09:03:46.168Z,1400.00
2022-08-20T09:04:46.265Z,1327.00
2022-08-20T09:05:46.107Z,1225.00
2022-08-20T09:06:48.398Z,1134.00
2022-08-20T09:07:47.123Z,1083.00
2022-08-20T09:08:46.147Z,1006.00
2022-08-20T09:09:46.054Z,960.00
2022-08-20T09:10:46.178Z,937.00
2022-08-20T09:11:46.005Z,917.00
2022-08-20T09:12:47.836Z,925.00
2022-08-20T09:13:46.021Z,978.00
2022-08-20T09:14:46.052Z,1024.00
2022-08-20T09:15:45.993Z,1039.00
2022-08-20T09:16:53.037Z,1031.00
2022-08-20T09:17:46.902Z,1040.00
2022-08-20T09:18:45.985Z,998.00
2022-08-20T09:19:45.884Z,950.00
2022-08-20T09:20:45.960Z,869.00
2022-08-20T09:21:45.813Z,813.00
2022-08-20T09:22:45.901Z,730.00
2022-08-20T09:23:45.765Z,633.00
2022-08-20T09:24:45.858Z,592.00
2022-08-20T09:25:45.759Z,590.00
2022-08-20T09:26:45.881Z,631.00
2022-08-20T09:27:45.722Z,662.00
2022-08-20T09:28:51.212Z,709.00
2022-08-20T09:29:46.682Z,753.00
2022-08-20T09:30:45.743Z,808.00
2022-08-20T09:31:46.440Z,838.00
2022-08-20T09:32:45.726Z,863.00
2022-08-20T09:33:45.599Z,911.00
2022-08-20T09:34:45.652Z,962.00
2022-08-20T09:35:45.540Z,972.00
2022-08-20T09:36:45.631Z,967.00
2022-08-20T09:37:45.535Z,925.00
2022-08-20T09:38:45.573Z,887.00
2022-08-20T09:39:45.528Z,904.00
2022-08-20T09:40:45.525Z,910.00
2022-08-20T09:41:45.435Z,869.00
2022-08-20T09:42:45.515Z,871.00
2022-08-20T09:43:45.382Z,934.00
2022-08-20T09:44:45.537Z,1030.00
2022-08-20T09:45:45.372Z,1112.00
2022-08-20T09:46:45.469Z,1238.00
2022-08-20T09:47:54.743Z,1436.00
2022-08-20T09:48:46.400Z,1841.00
2022-08-20T09:49:45.301Z,2347.00
2022-08-20T09:50:45.356Z,2236.00
2022-08-20T09:51:45.258Z,1833.00
2022-08-20T09:52:45.420Z,1610.00
2022-08-20T09:53:45.207Z,1440.00
2022-08-20T09:54:46.599Z,1376.00
2022-08-20T09:55:45.205Z,1297.00
2022-08-20T09:56:45.268Z,1226.00
2022-08-20T09:57:45.119Z,1220.00
2022-08-20T09:58:45.233Z,1299.00
2022-08-20T09:59:45.091Z,1446.00
2022-08-20T10:00:45.228Z,1608.00
2022-08-20T10:01:45.076Z,1792.00
2022-08-20T10:02:45.109Z,2074.00
2022-08-20T10:03:45.075Z,2436.00
2022-08-20T10:04:45.103Z,3963.00
2022-08-20T10:05:44.964Z,3092.00
2022-08-20T10:06:45.069Z,2440.00
2022-08-20T10:07:44.992Z,2381.00
2022-08-20T10:08:45.077Z,2487.00
2022-08-20T10:09:44.885Z,2436.00
2022-08-20T10:10:45.006Z,2468.00
2022-08-20T10:11:44.866Z,2416.00
2022-08-20T10:12:44.948Z,2426.00
2022-08-20T10:13:44.872Z,2880.00
2022-08-20T10:14:44.915Z,2709.00
2022-08-20T10:15:44.766Z,2665.00
2022-08-20T10:16:44.946Z,2416.00
2022-08-20T10:17:44.744Z,2315.00
2022-08-20T10:18:44.911Z,2157.00
2022-08-20T10:19:44.738Z,2239.00
2022-08-20T10:20:44.773Z,2611.00
2022-08-20T10:21:44.668Z,2573.00
2022-08-20T10:22:44.750Z,3090.00
2022-08-20T10:23:44.614Z,2476.00
2022-08-20T10:24:44.760Z,2443.00
2022-08-20T10:25:44.593Z,2462.00
2022-08-20T10:26:44.680Z,2523.00
2022-08-20T10:27:44.587Z,2634.00
2022-08-20T10:28:44.647Z,2847.00
2022-08-20T10:29:47.068Z,3400.00
2022-08-20T10:30:44.669Z,4027.00
2022-08-20T10:31:44.598Z,3017.00
2022-08-20T10:32:44.562Z,3159.00
2022-08-20T10:33:44.547Z,3750.00
2022-08-20T10:34:44.610Z,4368.00
2022-08-20T10:35:44.551Z,4804.00
2022-08-20T10:36:44.488Z,3992.00
2022-08-20T10:37:44.471Z,3809.00
2022-08-20T10:38:44.430Z,4905.00
2022-08-20T10:39:44.486Z,3704.00
2022-08-20T10:40:49.811Z,2362.00
2022-08-20T10:41:45.303Z,2192.00
2022-08-20T10:42:44.920Z,2126.00
2022-08-20T10:43:44.430Z,2083.00
2022-08-20T10:44:44.368Z,1982.00
2022-08-20T10:45:44.378Z,1900.00
2022-08-20T10:46:44.309Z,2029.00
2022-08-20T10:47:44.545Z,1904.00
2022-08-20T10:48:44.268Z,1738.00
2022-08-20T10:49:44.260Z,1765.00
2022-08-20T10:50:44.241Z,2690.00
2022-08-20T10:51:44.237Z,2503.00
2022-08-20T10:52:44.172Z,2538.00
2022-08-20T10:53:44.190Z,2731.00
2022-08-20T10:54:44.173Z,3494.00
2022-08-20T10:55:44.144Z,3037.00
2022-08-20T10:56:44.145Z,3678.00
2022-08-20T10:57:44.090Z,3001.00
2022-08-20T10:58:44.540Z,2535.00
2022-08-20T10:59:44.122Z,2633.00
2022-08-20T11:00:44.055Z,2580.00
2022-08-20T11:01:44.634Z,2565.00
2022-08-20T11:02:44.013Z,4049.00
2022-08-20T11:03:44.020Z,5287.00
2022-08-20T11:04:43.960Z,2716.00
2022-08-20T11:05:43.933Z,6395.00
2022-08-20T11:06:43.948Z,6582.00
2022-08-20T11:07:54.711Z,3547.00
2022-08-20T11:08:44.891Z,3467.00
2022-08-20T11:09:43.990Z,3386.00
2022-08-20T11:10:43.851Z,3335.00
2022-08-20T11:11:44.090Z,2662.00
2022-08-20T11:12:46.089Z,3184.00
2022-08-20T11:13:43.779Z,3698.00
2022-08-20T11:14:43.793Z,8309.00
2022-08-20T11:15:43.773Z,8590.00
2022-08-20T11:16:43.737Z,9137.00
2022-08-20T11:17:43.797Z,6753.00
2022-08-20T11:18:47.445Z,2828.00
2022-08-20T11:19:43.678Z,5319.00
2022-08-20T11:20:43.658Z,3505.00
2022-08-20T11:21:43.675Z,3498.00
2022-08-20T11:22:43.671Z,3148.00
2022-08-20T11:23:43.685Z,3123.00
2022-08-20T11:24:43.648Z,2154.00
2022-08-20T11:25:43.581Z,2219.00
2022-08-20T11:26:43.605Z,2025.00
2022-08-20T11:27:43.541Z,2212.00
2022-08-20T11:28:43.540Z,2010.00
2022-08-20T11:29:43.495Z,2007.00
2022-08-20T11:30:43.467Z,1876.00
2022-08-20T11:31:43.460Z,1660.00
2022-08-20T11:32:43.446Z,1706.00
2022-08-20T11:33:43.427Z,1799.00
2022-08-20T11:34:43.462Z,2093.00
2022-08-20T11:35:49.183Z,2128.00
2022-08-20T11:36:44.390Z,2367.00
2022-08-20T11:37:43.384Z,2550.00
2022-08-20T11:38:43.318Z,3365.00
2022-08-20T11:39:43.394Z,3146.00
2022-08-20T11:40:43.382Z,2375.00
2022-08-20T11:41:45.818Z,2508.00
2022-08-20T11:43:04.315Z,3279.00
2022-08-20T11:43:59.528Z,3060.00
2022-08-20T11:44:44.245Z,3123.00
2022-08-20T11:45:43.279Z,2719.00
2022-08-20T11:46:43.286Z,3009.00
2022-08-20T11:47:43.198Z,3134.00
2022-08-20T11:48:43.157Z,2497.00
2022-08-20T11:49:43.163Z,2227.00
2022-08-20T11:50:43.149Z,1948.00
2022-08-20T11:51:50.168Z,1733.00
2022-08-20T11:52:44.105Z,1714.00
2022-08-20T11:53:43.067Z,1764.00
2022-08-20T11:54:43.070Z,1755.00
2022-08-20T11:55:43.043Z,1755.00
2022-08-20T11:56:45.039Z,2650.00
2022-08-20T11:57:43.033Z,2757.00
2022-08-20T11:58:43.025Z,2996.00
2022-08-20T11:59:42.951Z,3012.00
2022-08-20T12:00:42.975Z,2315.00
2022-08-20T12:01:46.657Z,2851.00
2022-08-20T12:02:44.132Z,3173.00
2022-08-20T12:03:42.916Z,2210.00
2022-08-20T12:04:42.894Z,2017.00
2022-08-20T12:05:42.872Z,1962.00
2022-08-20T12:06:42.891Z,1898.00
2022-08-20T12:07:42.808Z,2022.00
2022-08-20T12:08:42.852Z,2221.00
2022-08-20T12:09:43.164Z,3262.00
2022-08-20T12:10:43.771Z,3189.00
2022-08-20T12:11:42.794Z,3331.00
2022-08-20T12:12:42.794Z,3274.00
2022-08-20T12:13:57.548Z,3239.00
2022-08-20T12:14:42.778Z,3048.00
2022-08-20T12:15:42.681Z,3002.00
2022-08-20T12:16:42.675Z,3187.00
2022-08-20T12:17:42.667Z,2942.00
2022-08-20T12:18:42.681Z,3552.00
2022-08-20T12:19:42.634Z,3525.00
2022-08-20T12:20:42.619Z,3426.00
2022-08-20T12:21:42.594Z,3234.00
2022-08-20T12:22:42.542Z,3226.00
2022-08-20T12:23:42.538Z,5540.00
2022-08-20T12:24:42.527Z,10182.00
2022-08-20T12:25:42.506Z,5609.00
2022-08-20T12:26:42.499Z,6280.00
2022-08-20T12:27:42.508Z,4382.00
2022-08-20T12:28:42.424Z,5345.00
2022-08-20T12:29:42.403Z,1797.00
2022-08-20T12:30:42.445Z,10181.00
2022-08-20T12:31:42.370Z,1899.00
2022-08-20T12:32:42.354Z,20176.00
2022-08-20T12:33:42.356Z,7428.00
2022-08-20T12:34:42.328Z,11813.00
2022-08-20T12:35:42.359Z,4956.00
2022-08-20T12:36:42.355Z,1769.00